Time;durP1;ratioP1;P1;durP2;ratioP2;P2;SDS_P1;SDS_P2;PMS_P1;PMS_P2;Temp;Humidity;BMP_temperature;BMP_pressure;BME280_temperature;BME280_humidity;BME280_pressure;Samples;Min_cycle;Max_cycle;Signal;HPM_P1;HPM_P2
2021/05/11 00:00:57;;;;;;;1.30;1.10;;;;;;;9.04;94.24;92307.97;2116117;27;20020;-83
2021/05/11 00:01:57;;;;;;;3.50;1.00;;;;;;;8.94;95.02;92315.09;2111651;28;20027;-82
2021/05/11 00:02:58;;;;;;;1.27;0.88;;;;;;;9.04;93.74;92315.97;2112073;28;20031;-82
2021/05/11 00:03:59;;;;;;;2.13;1.13;;;;;;;9.01;94.13;92317.59;2099757;28;20107;-83
2021/05/11 00:05:00;;;;;;;0.95;0.90;;;;;;;8.98;94.62;92315.75;2099183;28;20048;-84
2021/05/11 00:06:00;;;;;;;2.05;0.90;;;;;;;8.93;94.87;92315.53;2098455;28;20486;-83
2021/05/11 00:07:01;;;;;;;1.95;1.00;;;;;;;8.86;94.71;92318.41;2112278;28;20173;-82
2021/05/11 00:08:02;;;;;;;1.10;1.00;;;;;;;8.92;93.90;92314.81;2108806;28;20028;-82
2021/05/11 00:09:04;;;;;;;1.15;0.80;;;;;;;8.87;94.09;92318.00;2106531;28;20456;-83
2021/05/11 00:10:05;;;;;;;1.30;0.98;;;;;;;8.87;94.36;92311.88;2100512;28;20123;-84
2021/05/11 00:11:06;;;;;;;2.00;1.10;;;;;;;8.94;93.91;92309.78;2097854;28;20020;-82
2021/05/11 00:12:07;;;;;;;1.42;1.08;;;;;;;8.86;94.64;92315.72;2094379;28;20077;-83
2021/05/11 00:13:08;;;;;;;1.23;1.00;;;;;;;8.82;95.13;92308.59;2114782;28;20053;-82
2021/05/11 00:14:09;;;;;;;1.95;0.90;;;;;;;8.81;95.39;92309.75;2116035;27;20050;-83
2021/05/11 00:15:10;;;;;;;1.52;1.10;;;;;;;8.81;95.20;92307.09;2098409;28;20028;-83
2021/05/11 00:16:11;;;;;;;1.30;1.05;;;;;;;8.81;95.06;92301.03;2096785;28;20017;-83
2021/05/11 00:17:11;;;;;;;0.82;0.82;;;;;;;8.76;93.98;92302.28;2111335;28;20461;-83
2021/05/11 00:18:13;;;;;;;2.90;0.95;;;;;;;8.70;94.81;92301.31;2114734;28;20386;-83
2021/05/11 00:19:15;;;;;;;0.82;0.80;;;;;;;8.65;96.10;92303.75;2104777;28;20028;-82
2021/05/11 00:20:18;;;;;;;1.63;1.15;;;;;;;8.66;95.57;92303.34;2105433;28;20390;-82
2021/05/11 00:21:19;;;;;;;1.25;0.90;;;;;;;8.70;95.26;92303.25;2109906;28;20032;-83
2021/05/11 00:22:19;;;;;;;1.15;0.82;;;;;;;8.62;96.44;92313.34;2123865;27;20030;-81
2021/05/11 00:23:20;;;;;;;1.10;1.00;;;;;;;8.60;95.62;92310.34;2114659;28;20028;-84
2021/05/11 00:24:21;;;;;;;2.13;0.90;;;;;;;8.55;95.96;92313.53;2106300;28;20493;-83
2021/05/11 00:25:22;;;;;;;1.55;0.90;;;;;;;8.59;95.66;92308.84;2097726;28;20051;-83
2021/05/11 00:26:23;;;;;;;3.53;1.00;;;;;;;8.62;96.37;92309.94;2106227;28;20035;-81
2021/05/11 00:27:23;;;;;;;1.25;0.90;;;;;;;8.59;97.33;92303.53;2098950;28;20107;-82
2021/05/11 00:28:24;;;;;;;2.50;1.00;;;;;;;8.68;97.70;92308.25;2105407;28;20020;-82
2021/05/11 00:29:25;;;;;;;1.27;0.82;;;;;;;8.65;98.44;92304.53;2107204;28;20119;-83
2021/05/11 00:30:26;;;;;;;2.42;0.93;;;;;;;8.66;98.27;92295.34;2106967;28;20031;-83
2021/05/11 00:31:27;;;;;;;1.75;0.75;;;;;;;8.65;98.13;92293.88;2109469;28;20111;-82
2021/05/11 00:32:27;;;;;;;1.27;1.10;;;;;;;8.63;99.62;92293.53;2111126;28;20047;-83
2021/05/11 00:33:28;;;;;;;1.05;0.95;;;;;;;8.65;100.00;92293.09;2089432;28;20690;-82
2021/05/11 00:34:29;;;;;;;1.00;0.80;;;;;;;8.74;98.38;92290.56;2097620;28;20033;-84
2021/05/11 00:35:29;;;;;;;1.77;1.20;;;;;;;8.81;97.80;92298.34;2097874;28;20027;-82
2021/05/11 00:36:30;;;;;;;2.60;1.00;;;;;;;8.75;97.97;92294.72;2116735;27;20463;-83
2021/05/11 00:37:30;;;;;;;2.05;1.10;;;;;;;8.77;97.59;92289.72;2128929;27;20119;-83
2021/05/11 00:38:31;;;;;;;1.38;1.27;;;;;;;8.83;97.98;92296.03;2122243;27;20023;-83
2021/05/11 00:39:32;;;;;;;0.93;0.90;;;;;;;8.83;96.90;92296.03;2102861;28;20032;-81
2021/05/11 00:40:33;;;;;;;1.73;0.98;;;;;;;8.85;97.43;92300.91;2099939;28;20063;-83
2021/05/11 00:41:33;;;;;;;1.40;1.30;;;;;;;8.94;97.35;92296.44;2097510;28;20071;-81
2021/05/11 00:42:34;;;;;;;2.78;1.50;;;;;;;8.93;97.70;92289.63;2106829;28;20032;-83
2021/05/11 00:43:45;;;;;;;2.17;1.00;;;;;;;8.92;97.19;92277.50;2106032;28;20051;-83
2021/05/11 00:44:45;;;;;;;1.55;1.23;;;;;;;8.93;97.17;92280.91;2106593;28;20081;-83
2021/05/11 00:45:46;;;;;;;2.95;1.58;;;;;;;8.98;95.23;92286.44;2102232;28;20075;-82
2021/05/11 00:46:58;;;;;;;2.28;1.30;;;;;;;8.95;96.55;92279.28;2108220;28;20039;-82
2021/05/11 00:47:58;;;;;;;1.20;1.10;;;;;;;8.98;96.17;92283.78;2099174;28;20078;-83
2021/05/11 00:48:59;;;;;;;1.27;1.17;;;;;;;8.93;96.19;92280.91;2089363;28;20047;-83
2021/05/11 00:50:00;;;;;;;4.20;1.45;;;;;;;8.96;96.76;92286.13;2089471;28;20032;-84
2021/05/11 00:51:04;;;;;;;1.30;1.20;;;;;;;8.95;96.83;92287.28;2097684;28;20020;-84
2021/05/11 00:52:07;;;;;;;1.48;1.17;;;;;;;8.93;97.20;92291.56;2108567;27;20539;-83
2021/05/11 00:53:08;;;;;;;1.58;1.48;;;;;;;8.92;97.28;92282.06;2114349;28;20090;-84
2021/05/11 00:54:09;;;;;;;2.58;1.55;;;;;;;8.91;97.88;92275.22;2114393;28;20034;-83
2021/05/11 00:55:10;;;;;;;1.25;1.15;;;;;;;8.90;97.80;92271.81;2123557;27;20084;-82
2021/05/11 00:56:12;;;;;;;2.58;1.30;;;;;;;8.96;97.74;92270.13;2114435;28;20020;-82
2021/05/11 00:57:13;;;;;;;2.40;1.15;;;;;;;8.90;97.86;92269.16;2114361;28;20030;-82
2021/05/11 00:58:14;;;;;;;1.30;1.20;;;;;;;8.89;98.18;92266.94;2114152;28;20038;-83
2021/05/11 00:59:29;;;;;;;1.83;1.42;;;;;;;8.88;97.07;92266.19;2117383;27;20030;-83
2021/05/11 01:00:30;;;;;;;3.10;1.48;;;;;;;8.86;97.39;92268.50;2108138;28;20110;-83
2021/05/11 01:01:31;;;;;;;1.95;1.52;;;;;;;8.88;97.37;92262.78;2090159;28;20051;-83
2021/05/11 01:02:32;;;;;;;1.10;1.00;;;;;;;8.83;97.68;92258.72;2097578;28;20071;-83
2021/05/11 01:03:33;;;;;;;3.33;1.40;;;;;;;8.87;97.96;92262.03;2097450;28;20119;-81
2021/05/11 01:04:35;;;;;;;2.28;1.35;;;;;;;8.86;97.73;92260.50;2102971;28;20044;-81
2021/05/11 01:05:36;;;;;;;1.73;1.30;;;;;;;8.85;97.52;92260.94;2097994;28;20047;-83
2021/05/11 01:06:36;;;;;;;2.00;1.30;;;;;;;8.81;97.50;92261.78;2097428;28;20035;-82
2021/05/11 01:07:37;;;;;;;3.30;1.60;;;;;;;8.73;98.46;92268.50;2089005;28;20029;-82
2021/05/11 01:08:38;;;;;;;2.15;1.45;;;;;;;8.75;97.50;92260.84;2105772;28;20032;-84
2021/05/11 01:09:38;;;;;;;1.60;1.50;;;;;;;8.70;98.28;92266.69;2114216;28;20571;-83
2021/05/11 01:10:39;;;;;;;1.40;1.30;;;;;;;8.69;98.35;92272.44;2114303;28;20024;-83
2021/05/11 01:11:40;;;;;;;2.35;1.20;;;;;;;8.66;97.32;92263.38;2110317;28;20077;-83
2021/05/11 01:12:40;;;;;;;2.75;1.40;;;;;;;8.63;97.77;92264.22;2108912;28;20024;-82
2021/05/11 01:13:41;;;;;;;2.03;1.48;;;;;;;8.60;98.71;92266.97;2097311;28;20033;-82
2021/05/11 01:14:43;;;;;;;1.73;1.40;;;;;;;8.61;99.01;92265.84;2097378;28;20488;-81
2021/05/11 01:15:48;;;;;;;1.30;1.20;;;;;;;8.57;98.93;92261.34;2099847;28;20918;-83
2021/05/11 01:16:54;;;;;;;1.58;1.13;;;;;;;8.61;99.59;92268.50;2089464;28;20074;-83
2021/05/11 01:18:01;;;;;;;1.95;1.30;;;;;;;8.68;99.35;92276.28;2090015;28;20050;-82
2021/05/11 01:19:19;;;;;;;1.92;1.25;;;;;;;8.61;99.63;92279.91;2085363;28;20092;-83
2021/05/11 01:20:27;;;;;;;1.50;1.00;;;;;;;8.68;99.40;92279.69;2105964;28;20540;-83
2021/05/11 01:24:56;;;;;;;1.42;1.10;;;;;;;8.56;98.30;92278.50;2097827;28;20036;-83
2021/05/11 01:26:25;;;;;;;2.25;1.40;;;;;;;8.53;98.85;92287.31;2107806;27;20024;-83
2021/05/11 01:28:57;;;;;;;1.70;0.93;;;;;;;8.57;97.28;92272.00;2105711;28;20034;-84
2021/05/11 01:45:50;;;;;;;1.50;1.20;;;;;;;8.43;98.56;92296.38;2107771;28;20760;-83
2021/05/11 01:50:07;;;;;;;1.50;1.10;;;;;;;8.39;99.52;92293.03;2095381;28;20029;-84
2021/05/11 01:50:47;;;;;;;2.13;1.13;;;;;;;8.42;99.35;92291.44;2098258;28;20842;-83
2021/05/11 01:54:32;;;;;;;2.75;1.10;;;;;;;8.48;99.41;92287.84;2108795;28;20047;-82
2021/05/11 02:23:38;;;;;;;1.92;1.60;;;;;;;8.81;99.01;92263.72;2126973;27;20495;-84
2021/05/11 02:24:39;;;;;;;1.73;1.25;;;;;;;8.86;99.76;92265.09;2108663;28;20024;-82
2021/05/11 02:25:39;;;;;;;1.35;1.25;;;;;;;8.90;98.61;92268.41;2112251;28;20077;-83
2021/05/11 02:26:40;;;;;;;1.45;1.35;;;;;;;8.88;98.72;92266.19;2111657;28;20058;-83
2021/05/11 02:27:42;;;;;;;1.50;1.40;;;;;;;8.91;98.83;92276.00;2116000;28;20020;-84
2021/05/11 02:28:43;;;;;;;1.20;1.10;;;;;;;8.91;99.00;92276.00;2108226;28;20024;-84
2021/05/11 02:29:44;;;;;;;1.83;1.48;;;;;;;8.91;99.09;92272.56;2112756;28;20041;-84
2021/05/11 02:30:44;;;;;;;1.42;1.33;;;;;;;8.86;98.99;92279.16;2114336;28;20024;-84
2021/05/11 02:31:46;;;;;;;1.85;1.50;;;;;;;8.91;99.33;92277.91;2114945;28;20047;-83
2021/05/11 02:32:47;;;;;;;2.08;1.35;;;;;;;8.94;98.38;92277.78;2109489;28;20020;-83
2021/05/11 02:33:47;;;;;;;3.25;1.50;;;;;;;8.96;98.52;92280.78;2095695;28;20035;-83
2021/05/11 02:34:48;;;;;;;2.58;1.65;;;;;;;8.98;98.61;92273.09;2105326;28;20091;-84
2021/05/11 02:35:49;;;;;;;2.25;1.60;;;;;;;8.98;97.97;92278.44;2120375;28;20058;-82
2021/05/11 02:36:50;;;;;;;2.10;1.55;;;;;;;8.98;97.94;92277.69;2118261;28;21311;-82
2021/05/11 02:37:50;;;;;;;2.72;1.73;;;;;;;8.95;98.42;92273.94;2120098;28;20453;-83
2021/05/11 02:38:51;;;;;;;2.58;1.70;;;;;;;8.98;98.52;92273.09;2120566;28;20027;-83
2021/05/11 02:39:52;;;;;;;2.17;1.85;;;;;;;9.06;98.84;92266.41;2110908;28;20058;-83
2021/05/11 02:40:52;;;;;;;2.20;2.00;;;;;;;9.07;98.21;92265.22;2116821;28;20027;-83
2021/05/11 02:41:53;;;;;;;2.03;1.77;;;;;;;9.14;97.07;92266.19;2126417;27;20383;-84
2021/05/11 02:43:01;;;;;;;2.10;1.90;;;;;;;9.16;97.58;92259.25;2117238;28;20032;-82
2021/05/11 02:44:02;;;;;;;1.90;1.50;;;;;;;9.18;96.33;92261.50;2120891;27;20088;-83
2021/05/11 02:45:06;;;;;;;1.98;1.80;;;;;;;9.16;97.23;92259.25;2120317;28;20023;-82
2021/05/11 02:46:07;;;;;;;1.98;1.80;;;;;;;9.13;97.94;92254.78;2114452;27;20024;-83
2021/05/11 02:47:08;;;;;;;1.95;1.85;;;;;;;9.13;97.71;92246.78;2129653;27;20031;-84
2021/05/11 02:48:08;;;;;;;2.22;1.80;;;;;;;9.07;98.43;92235.91;2124505;27;20082;-83
2021/05/11 02:49:09;;;;;;;3.05;2.42;;;;;;;9.06;98.70;92234.41;2128415;27;20417;-83
2021/05/11 02:50:10;;;;;;;3.40;1.98;;;;;;;9.07;98.23;92241.22;2114162;28;20031;-84
2021/05/11 02:51:11;;;;;;;2.33;2.13;;;;;;;9.08;98.56;92232.06;2121025;28;20031;-83
2021/05/11 02:52:12;;;;;;;2.25;2.03;;;;;;;9.13;98.58;92238.78;2111650;28;20023;-85
2021/05/11 02:53:13;;;;;;;2.17;1.98;;;;;;;9.20;98.30;92227.16;2121034;28;20145;-83
2021/05/11 02:54:13;;;;;;;2.97;2.13;;;;;;;9.21;97.94;92226.72;2112507;28;20093;-84
2021/05/11 02:55:16;;;;;;;1.90;1.80;;;;;;;9.22;97.44;92224.78;2112459;28;20118;-82
2021/05/11 02:56:16;;;;;;;2.05;1.88;;;;;;;9.20;97.93;92221.81;2117852;27;20028;-82
2021/05/11 02:57:17;;;;;;;2.90;2.08;;;;;;;9.21;97.15;92226.72;2138892;27;20026;-82
2021/05/11 02:58:18;;;;;;;4.30;2.00;;;;;;;9.21;97.85;92233.97;2124282;27;20047;-83
2021/05/11 02:59:18;;;;;;;2.83;2.30;;;;;;;9.21;97.93;92232.03;2095634;28;20073;-82
2021/05/11 03:00:22;;;;;;;4.65;2.20;;;;;;;9.20;97.83;92233.22;2106690;28;20110;-84
2021/05/11 03:01:23;;;;;;;3.13;2.13;;;;;;;9.25;97.61;92232.69;2118103;27;20019;-82
2021/05/11 03:02:23;;;;;;;5.32;2.30;;;;;;;9.25;97.21;92229.28;2117833;28;20404;-84
2021/05/11 03:03:24;;;;;;;3.75;2.42;;;;;;;9.26;96.95;92228.88;2103580;28;20036;-83
2021/05/11 03:04:24;;;;;;;3.88;2.92;;;;;;;9.25;98.42;92238.03;2112267;28;20869;-83
2021/05/11 03:05:25;;;;;;;3.45;2.78;;;;;;;9.25;98.64;92247.94;2120905;28;20504;-82
2021/05/11 03:06:26;;;;;;;2.83;2.47;;;;;;;9.29;97.35;92248.59;2112326;28;20553;-83
2021/05/11 03:07:26;;;;;;;3.22;2.75;;;;;;;9.22;98.75;92248.78;2124403;27;20361;-83
2021/05/11 03:08:27;;;;;;;3.28;2.53;;;;;;;9.29;98.06;92245.91;2131872;27;20101;-83
2021/05/11 03:09:28;;;;;;;2.38;2.17;;;;;;;9.25;98.04;92234.59;2124624;27;20033;-83
2021/05/11 03:10:28;;;;;;;3.00;2.63;;;;;;;9.24;98.03;92225.88;2123758;27;20030;-83
2021/05/11 03:11:29;;;;;;;3.22;2.40;;;;;;;9.23;97.92;92218.31;2107474;28;20719;-82
2021/05/11 03:12:30;;;;;;;3.58;2.22;;;;;;;9.25;98.21;92207.94;2097120;28;20020;-84
2021/05/11 03:13:31;;;;;;;2.60;2.20;;;;;;;9.22;98.00;92198.91;2099165;28;20021;-83
2021/05/11 03:14:33;;;;;;;2.20;2.00;;;;;;;9.25;97.35;92202.63;2096488;28;20024;-83
2021/05/11 03:15:34;;;;;;;2.75;2.40;;;;;;;9.23;97.56;92200.38;2108717;28;20111;-82
2021/05/11 03:16:36;;;;;;;2.40;2.15;;;;;;;9.22;98.03;92190.91;2103126;28;20501;-83
2021/05/11 03:17:38;;;;;;;2.35;2.15;;;;;;;9.19;98.33;92189.09;2103399;28;20122;-82
2021/05/11 03:18:38;;;;;;;4.07;2.17;;;;;;;9.17;97.97;92177.34;2107783;27;20052;-82
2021/05/11 03:19:39;;;;;;;2.47;1.90;;;;;;;9.14;98.19;92178.97;2115186;28;20106;-82
2021/05/11 03:20:40;;;;;;;2.17;2.05;;;;;;;9.12;97.92;92185.88;2101883;28;20074;-82
2021/05/11 03:21:41;;;;;;;2.90;2.03;;;;;;;9.10;98.58;92181.00;2103818;28;20032;-82
2021/05/11 03:22:41;;;;;;;2.15;2.00;;;;;;;9.11;98.05;92184.41;2090786;28;20021;-83
2021/05/11 03:23:42;;;;;;;2.55;2.28;;;;;;;9.10;97.94;92191.66;2105672;28;20051;-83
2021/05/11 03:24:46;;;;;;;2.38;2.13;;;;;;;9.13;99.18;92190.03;2121822;27;20080;-83
2021/05/11 03:25:46;;;;;;;2.20;2.10;;;;;;;9.07;99.74;92187.91;2112775;28;20031;-84
2021/05/11 03:26:47;;;;;;;2.00;1.90;;;;;;;9.06;99.88;92189.09;2100999;28;20393;-82
2021/05/11 03:27:48;;;;;;;4.07;2.22;;;;;;;9.08;99.95;92189.41;2099200;28;20028;-83
2021/05/11 03:28:48;;;;;;;3.20;2.00;;;;;;;9.07;99.75;92185.25;2100902;28;20432;-81
2021/05/11 03:29:49;;;;;;;2.25;2.08;;;;;;;9.12;99.19;92188.56;2109030;28;20028;-84
2021/05/11 03:30:50;;;;;;;2.38;2.17;;;;;;;9.12;99.53;92185.88;2123511;27;20023;-83
2021/05/11 03:31:50;;;;;;;2.30;2.10;;;;;;;9.10;99.70;92201.56;2105781;28;20028;-83
2021/05/11 03:32:51;;;;;;;2.10;1.90;;;;;;;9.12;99.52;92199.97;2095571;28;20115;-83
2021/05/11 03:33:52;;;;;;;2.25;2.05;;;;;;;9.15;98.33;92198.38;2096807;28;20036;-82
2021/05/11 03:34:52;;;;;;;2.05;1.80;;;;;;;9.17;98.51;92190.69;2092725;28;20025;-84
2021/05/11 03:35:53;;;;;;;2.40;2.20;;;;;;;9.12;99.60;92186.63;2103250;28;20028;-82
2021/05/11 03:36:54;;;;;;;2.30;2.10;;;;;;;9.16;98.79;92181.94;2101838;28;20056;-82
2021/05/11 03:37:56;;;;;;;1.80;1.70;;;;;;;9.10;99.40;92185.59;2106724;28;20134;-83
2021/05/11 03:38:59;;;;;;;4.82;2.45;;;;;;;9.03;99.73;92187.28;2111345;28;20476;-82
2021/05/11 03:40:00;;;;;;;2.17;1.75;;;;;;;9.05;99.51;92178.88;2102347;28;20497;-83
2021/05/11 03:41:01;;;;;;;2.30;2.10;;;;;;;9.13;100.00;92184.72;2100798;28;20034;-84
2021/05/11 03:42:09;;;;;;;2.45;1.98;;;;;;;9.04;99.98;92178.13;2086710;28;20028;-83
2021/05/11 03:43:13;;;;;;;3.03;2.25;;;;;;;9.16;99.46;92181.94;2098795;28;20094;-82
2021/05/11 03:44:17;;;;;;;2.38;2.17;;;;;;;9.15;99.00;92182.38;2100192;28;20496;-83
2021/05/11 03:45:19;;;;;;;1.80;1.70;;;;;;;9.18;98.25;92182.25;2112930;28;20508;-83
2021/05/11 03:46:20;;;;;;;3.80;2.20;;;;;;;9.20;97.91;92195.16;2101471;28;20028;-81
2021/05/11 03:47:22;;;;;;;2.15;2.00;;;;;;;9.18;98.45;92194.84;2089716;28;20025;-82
2021/05/11 03:48:22;;;;;;;4.25;2.10;;;;;;;9.21;99.07;92199.31;2104816;28;20026;-84
2021/05/11 03:49:23;;;;;;;2.50;2.10;;;;;;;9.20;99.47;92200.50;2111361;27;20102;-83
2021/05/11 03:50:24;;;;;;;2.72;2.13;;;;;;;9.26;98.50;92202.19;2106523;28;20034;-82
2021/05/11 03:51:25;;;;;;;4.43;2.47;;;;;;;9.31;98.58;92195.56;2091217;28;20447;-81
2021/05/11 03:52:25;;;;;;;2.50;2.10;;;;;;;9.27;98.92;92198.34;2098060;28;20118;-84
2021/05/11 03:53:26;;;;;;;3.05;2.33;;;;;;;9.23;98.76;92194.31;2101364;28;20099;-83
2021/05/11 03:54:27;;;;;;;2.50;2.30;;;;;;;9.13;99.81;92196.13;2116162;27;20024;-84
2021/05/11 03:55:28;;;;;;;2.40;2.13;;;;;;;9.12;99.47;92196.56;2108657;28;20047;-83
2021/05/11 03:56:28;;;;;;;2.20;2.00;;;;;;;9.13;99.70;92198.81;2104676;28;20023;-84
2021/05/11 03:57:29;;;;;;;3.83;2.40;;;;;;;9.14;99.40;92202.22;2119354;27;20122;-83
2021/05/11 03:58:30;;;;;;;2.20;2.00;;;;;;;9.15;99.41;92203.69;2112877;28;20024;-83
2021/05/11 03:59:31;;;;;;;3.85;2.33;;;;;;;9.16;99.72;92210.53;2110630;28;20035;-82
2021/05/11 04:00:31;;;;;;;4.05;2.25;;;;;;;9.15;99.69;92203.69;2110673;28;20122;-82
2021/05/11 04:01:33;;;;;;;2.03;1.92;;;;;;;9.16;99.30;92205.19;2113471;27;20034;-83
2021/05/11 04:02:34;;;;;;;3.47;2.15;;;;;;;9.19;99.09;92196.34;2099401;28;20025;-83
2021/05/11 04:03:34;;;;;;;3.15;2.30;;;;;;;9.21;99.06;92192.06;2085446;28;20046;-84
2021/05/11 04:04:35;;;;;;;2.55;2.30;;;;;;;9.17;99.61;92188.75;2089453;28;20636;-83
2021/05/11 04:05:36;;;;;;;2.25;2.05;;;;;;;9.20;98.71;92182.56;2093927;28;20024;-82
2021/05/11 04:06:39;;;;;;;2.60;2.40;;;;;;;9.18;99.05;92182.25;2106406;28;20059;-82
2021/05/11 04:07:41;;;;;;;2.92;2.05;;;;;;;9.21;99.46;92178.72;2115555;28;20376;-83
2021/05/11 04:08:49;;;;;;;3.25;2.17;;;;;;;9.22;98.82;92177.56;2114391;28;20031;-82
2021/05/11 04:09:58;;;;;;;2.30;2.10;;;;;;;9.26;98.59;92166.75;2101083;28;20024;-84
2021/05/11 04:11:41;;;;;;;2.10;1.90;;;;;;;9.25;98.95;92170.63;2106415;28;20091;-83
2021/05/11 04:13:53;;;;;;;1.90;1.80;;;;;;;9.30;99.20;92178.06;2105930;28;20031;-82
2021/05/11 04:17:15;;;;;;;1.92;1.67;;;;;;;9.33;97.60;92187.88;2098179;28;20025;-84
2021/05/11 04:18:16;;;;;;;1.80;1.70;;;;;;;9.32;98.72;92184.47;2108558;28;20047;-83
2021/05/11 04:19:17;;;;;;;2.15;1.95;;;;;;;9.29;98.75;92190.66;2109768;28;20544;-83
2021/05/11 04:20:18;;;;;;;1.67;1.45;;;;;;;9.31;98.86;92182.25;2091841;28;20067;-84
2021/05/11 04:21:20;;;;;;;1.48;1.38;;;;;;;9.32;98.56;92171.13;2104802;28;20401;-84
2021/05/11 04:22:20;;;;;;;1.35;1.23;;;;;;;9.35;97.31;92177.53;2118211;27;20027;-82
2021/05/11 04:23:21;;;;;;;1.92;1.50;;;;;;;9.37;97.49;92180.50;2100767;28;20035;-83
2021/05/11 04:24:24;;;;;;;1.30;1.20;;;;;;;9.39;96.85;92174.75;2103100;28;20111;-82
2021/05/11 04:25:25;;;;;;;1.98;1.50;;;;;;;9.39;97.86;92186.16;2105763;28;20020;-83
2021/05/11 04:26:26;;;;;;;3.72;1.30;;;;;;;9.37;97.13;92185.09;2102531;28;20073;-84
2021/05/11 04:27:27;;;;;;;2.10;1.20;;;;;;;9.38;97.85;92184.66;2100997;28;20027;-82
2021/05/11 04:28:28;;;;;;;1.30;1.20;;;;;;;9.38;97.65;92191.94;2102240;28;20031;-84
2021/05/11 04:29:28;;;;;;;1.65;1.50;;;;;;;9.37;98.35;92193.84;2100737;28;20831;-83
2021/05/11 04:30:29;;;;;;;1.35;1.25;;;;;;;9.42;98.00;92192.56;2098953;28;20020;-82
2021/05/11 04:31:33;;;;;;;1.40;1.30;;;;;;;9.40;98.66;92193.00;2105955;28;20027;-83
2021/05/11 04:32:34;;;;;;;1.48;1.30;;;;;;;9.47;97.30;92194.69;2102370;28;20465;-83
2021/05/11 04:33:35;;;;;;;1.92;1.30;;;;;;;9.48;97.92;92199.59;2111430;28;20035;-84
2021/05/11 04:34:36;;;;;;;1.67;1.30;;;;;;;9.48;97.37;92204.94;2102370;28;20049;-84
2021/05/11 04:35:36;;;;;;;1.30;1.20;;;;;;;9.51;97.44;92211.31;2085959;28;20021;-84
2021/05/11 04:36:37;;;;;;;1.63;1.30;;;;;;;9.52;97.22;92215.47;2102679;28;20048;-83
2021/05/11 04:37:38;;;;;;;2.05;1.63;;;;;;;9.51;96.49;92216.66;2111184;28;20115;-82
2021/05/11 04:38:38;;;;;;;3.78;2.10;;;;;;;9.50;96.91;92218.56;2101772;28;20473;-83
2021/05/11 04:39:39;;;;;;;2.30;2.10;;;;;;;9.56;98.07;92213.44;2105080;28;20087;-84
2021/05/11 04:40:40;;;;;;;3.83;3.47;;;;;;;9.49;99.17;92205.69;2110093;28;20027;-84
2021/05/11 04:41:40;;;;;;;5.13;4.72;;;;;;;9.54;98.32;92203.19;2100459;28;20120;-83
2021/05/11 04:42:43;;;;;;;7.40;4.65;;;;;;;9.50;98.08;92197.22;2090314;28;20031;-83
2021/05/11 04:43:45;;;;;;;5.22;4.47;;;;;;;9.50;99.11;92196.50;2103841;28;20020;-83
2021/05/11 04:44:45;;;;;;;4.35;3.95;;;;;;;9.54;97.90;92197.88;2114420;28;20035;-83
2021/05/11 04:45:47;;;;;;;5.75;5.20;;;;;;;9.58;97.39;92187.81;2110282;28;20020;-83
2021/05/11 04:46:57;;;;;;;3.03;1.90;;;;;;;9.56;96.60;92189.41;2112170;28;20572;-83
2021/05/11 04:47:58;;;;;;;1.73;1.20;;;;;;;9.59;96.23;92189.31;2107215;28;20085;-82
2021/05/11 04:48:59;;;;;;;1.20;1.05;;;;;;;9.58;95.41;92189.75;2100937;28;20165;-83
2021/05/11 04:49:59;;;;;;;1.23;1.00;;;;;;;9.59;95.84;92191.97;2114245;28;20024;-82
2021/05/11 04:51:00;;;;;;;1.00;0.90;;;;;;;9.63;95.62;92189.19;2098446;28;20028;-82
2021/05/11 04:52:01;;;;;;;1.40;1.25;;;;;;;9.65;95.38;92191.41;2101060;28;20016;-82
2021/05/11 04:53:02;;;;;;;0.80;0.80;;;;;;;9.68;95.66;92195.91;2100073;28;20034;-82
2021/05/11 04:54:03;;;;;;;2.08;0.90;;;;;;;9.71;95.00;92197.72;2102414;28;20493;-82
2021/05/11 04:55:04;;;;;;;0.82;0.80;;;;;;;9.72;94.39;92191.94;2099812;28;20028;-83
2021/05/11 04:56:05;;;;;;;0.60;0.60;;;;;;;9.74;94.66;92199.50;2103034;28;20032;-82
2021/05/11 04:57:06;;;;;;;1.60;0.90;;;;;;;9.74;94.59;92199.50;2081654;28;20037;-82
2021/05/11 04:58:07;;;;;;;0.90;0.80;;;;;;;9.72;94.94;92201.88;2096730;28;20880;-82
2021/05/11 04:59:07;;;;;;;1.08;0.70;;;;;;;9.73;94.39;92206.03;2101439;28;20512;-83
2021/05/11 05:00:10;;;;;;;2.83;0.88;;;;;;;9.77;94.38;92195.97;2099343;28;20048;-83
2021/05/11 05:01:10;;;;;;;1.85;1.08;;;;;;;9.77;94.58;92196.72;2111925;27;20428;-83
2021/05/11 05:02:11;;;;;;;1.48;0.98;;;;;;;9.78;94.95;92200.13;2111982;28;20024;-82
2021/05/11 05:03:15;;;;;;;0.80;0.80;;;;;;;9.78;95.28;92194.78;2113153;28;20020;-82
2021/05/11 05:04:16;;;;;;;2.58;0.90;;;;;;;9.82;94.24;92196.16;2112101;28;20026;-83
2021/05/11 05:05:17;;;;;;;0.95;0.85;;;;;;;9.86;94.25;92197.97;2103500;28;20024;-83
2021/05/11 05:06:18;;;;;;;1.85;0.80;;;;;;;9.88;94.72;92199.03;2102652;28;20039;-81
2021/05/11 05:07:19;;;;;;;1.10;0.80;;;;;;;9.85;93.92;92197.22;2108353;28;20435;-83
2021/05/11 05:08:19;;;;;;;1.00;0.73;;;;;;;9.88;93.91;92204.38;2113343;28;20051;-83
2021/05/11 05:09:20;;;;;;;1.05;0.95;;;;;;;9.88;94.69;92201.72;2101281;28;20025;-83
2021/05/11 05:10:21;;;;;;;3.58;1.42;;;;;;;9.89;95.43;92205.88;2091890;28;20032;-84
2021/05/11 05:11:21;;;;;;;0.90;0.80;;;;;;;9.84;95.10;92203.75;2095621;28;20032;-81
2021/05/11 05:12:22;;;;;;;1.15;0.85;;;;;;;9.83;94.80;92204.91;2103892;28;20031;-82
2021/05/11 05:13:25;;;;;;;1.23;0.88;;;;;;;9.88;94.10;92204.38;2095784;28;20025;-83
2021/05/11 05:14:25;;;;;;;2.53;0.93;;;;;;;9.90;94.69;92203.94;2105668;28;20089;-82
2021/05/11 05:15:26;;;;;;;1.73;0.90;;;;;;;9.88;94.22;92201.72;2088508;28;20024;-83
2021/05/11 05:16:28;;;;;;;3.38;0.70;;;;;;;9.87;94.17;92197.53;2095527;28;20027;-82
2021/05/11 05:17:29;;;;;;;1.92;0.90;;;;;;;9.85;94.13;92199.91;2109937;28;20020;-82
2021/05/11 05:18:30;;;;;;;1.15;0.80;;;;;;;9.87;94.25;92196.78;2101549;28;20485;-81
2021/05/11 05:19:30;;;;;;;1.00;0.82;;;;;;;9.87;93.44;92196.78;2098120;28;20462;-83
2021/05/11 05:20:31;;;;;;;1.95;0.85;;;;;;;9.86;93.68;92200.66;2105709;28;20036;-83
2021/05/11 05:21:32;;;;;;;1.83;0.70;;;;;;;9.89;93.92;92194.44;2106091;28;20024;-82
2021/05/11 05:22:33;;;;;;;0.98;0.90;;;;;;;9.90;93.97;92194.00;2110198;28;20019;-82
2021/05/11 05:23:43;;;;;;;2.03;0.82;;;;;;;9.97;93.87;92182.34;2101209;28;20021;-82
2021/05/11 05:24:48;;;;;;;1.15;0.90;;;;;;;9.96;93.68;92176.25;2091529;28;20025;-82
2021/05/11 05:26:07;;;;;;;1.35;0.77;;;;;;;9.96;92.79;92189.59;2110026;28;20028;-83
2021/05/11 05:28:29;;;;;;;0.93;0.82;;;;;;;9.99;92.79;92194.06;2088448;28;20078;-83
2021/05/11 05:29:30;;;;;;;2.08;0.65;;;;;;;10.02;93.58;92200.47;2098711;28;20033;-82
2021/05/11 05:30:30;;;;;;;0.82;0.82;;;;;;;9.96;93.27;92194.19;2087049;28;20024;-82
2021/05/11 05:31:31;;;;;;;1.02;0.80;;;;;;;10.02;93.80;92195.88;2089018;28;20047;-83
2021/05/11 05:32:32;;;;;;;1.02;0.77;;;;;;;10.04;94.11;92192.78;2092941;28;20140;-81
2021/05/11 05:33:35;;;;;;;0.70;0.70;;;;;;;10.04;93.17;92185.50;2089689;28;20029;-83
2021/05/11 05:34:35;;;;;;;0.80;0.80;;;;;;;10.09;92.47;92184.94;2097848;28;20523;-83
2021/05/11 05:35:36;;;;;;;1.20;0.85;;;;;;;10.13;93.25;92184.06;2102124;28;20028;-84
2021/05/11 05:36:37;;;;;;;1.10;0.82;;;;;;;10.04;92.47;92182.09;2109757;28;20020;-83
2021/05/11 05:37:37;;;;;;;0.70;0.70;;;;;;;10.08;91.93;92196.06;2110641;28;20027;-81
2021/05/11 05:38:40;;;;;;;0.98;0.85;;;;;;;10.12;92.01;92190.59;2096904;28;20020;-84
2021/05/11 05:39:44;;;;;;;0.73;0.73;;;;;;;10.11;91.39;92197.13;2092340;28;20104;-83
2021/05/11 05:40:45;;;;;;;1.83;0.90;;;;;;;10.05;92.18;92197.69;2100406;28;21113;-83
2021/05/11 05:41:45;;;;;;;1.10;1.00;;;;;;;10.15;92.07;92206.50;2112150;28;20027;-82
2021/05/11 05:42:47;;;;;;;0.98;0.98;;;;;;;10.13;91.62;92202.75;2098574;28;20027;-81
2021/05/11 05:43:48;;;;;;;1.17;0.90;;;;;;;10.13;91.82;92202.75;2103526;28;20029;-82
2021/05/11 05:44:49;;;;;;;2.45;1.00;;;;;;;10.07;92.21;92198.00;2101603;28;20486;-82
2021/05/11 05:45:52;;;;;;;0.82;0.82;;;;;;;10.13;92.25;92198.16;2103668;28;20055;-82
2021/05/11 05:46:53;;;;;;;1.25;1.10;;;;;;;10.16;91.90;92194.63;2091043;28;20025;-82
2021/05/11 05:47:54;;;;;;;1.27;1.17;;;;;;;10.15;92.52;92195.81;2088823;28;20029;-83
2021/05/11 05:48:55;;;;;;;1.80;0.90;;;;;;;10.14;92.70;92204.25;2083044;28;20379;-81
2021/05/11 05:50:05;;;;;;;2.15;0.85;;;;;;;10.16;92.54;92207.25;2103813;28;20032;-81
2021/05/11 05:51:06;;;;;;;2.03;0.98;;;;;;;10.15;92.50;92206.50;2098321;28;20078;-82
2021/05/11 05:52:10;;;;;;;0.88;0.88;;;;;;;10.18;92.51;92202.19;2105620;28;20031;-83
2021/05/11 05:53:21;;;;;;;0.95;0.90;;;;;;;10.12;90.89;92198.63;2098816;28;20078;-82
2021/05/11 05:54:21;;;;;;;2.65;1.00;;;;;;;10.16;91.73;92202.66;2090220;28;20028;-82